This is the latest recevied weather packets stored in our database for station/object K5YNC. If no packets are shown the sender has not sent any weather packets the latest 10 day(s).
| Time | Temp. | Humidity | Pressure | Rain* | Wind** | Luminosity | Snow |
|---|---|---|---|---|---|---|---|
| 1777660048 | 18.89° C | 56% | 1019 hPa | 0 mm | - | 374 W/m² | - |
| 1777659745 | 18.89° C | 57% | 1019.3 hPa | 0 mm | - | 490 W/m² | - |
| 1777659442 | 19.44° C | 56% | 1019.2 hPa | 0 mm | - | 460 W/m² | - |
| 1777659139 | 18.89° C | 58% | 1019.1 hPa | 0 mm | - | 423 W/m² | - |
| 1777658837 | 18.89° C | 59% | 1018.9 hPa | 0 mm | - | 435 W/m² | - |
| 1777658532 | 18.33° C | 57% | 1019.2 hPa | 0 mm | - | 448 W/m² | - |
| 1777658229 | 18.33° C | 56% | 1019 hPa | 0 mm | - | 437 W/m² | - |
| 1777657927 | 18.33° C | 56% | 1019.1 hPa | 0 mm | - | 677 W/m² | - |
| 1777657623 | 18.33° C | 57% | 1019.3 hPa | 0 mm | - | 519 W/m² | - |
| 1777657321 | 18.33° C | 58% | 1019.3 hPa | 0 mm | - | 554 W/m² | - |
| 1777657018 | 17.78° C | 63% | 1019.5 hPa | 0 mm | - | 528 W/m² | - |
| 1777656715 | 18.33° C | 61% | 1019.7 hPa | 0 mm | - | 461 W/m² | - |
| 1777656411 | 17.78° C | 65% | 1020.1 hPa | 0 mm | - | 559 W/m² | - |
| 1777656106 | 17.78° C | 64% | 1020 hPa | 0 mm | - | 345 W/m² | - |
| 1777655802 | 17.22° C | 68% | 1020.1 hPa | 0 mm | - | 342 W/m² | - |
| 1777655499 | 17.22° C | 68% | 1020.4 hPa | 0 mm | - | 308 W/m² | - |
| 1777655197 | 17.22° C | 69% | 1020.3 hPa | 0 mm | - | 317 W/m² | - |
| 1777654893 | 16.67° C | 71% | 1020.5 hPa | 0 mm | - | 312 W/m² | - |
| 1777654591 | 16.67° C | 70% | 1020.4 hPa | 0 mm | - | 211 W/m² | - |
| 1777654287 | 16.67° C | 71% | 1020.5 hPa | 0 mm | - | 235 W/m² | - |
| 1777653986 | 17.22° C | 70% | 1020.7 hPa | 0 mm | - | 231 W/m² | - |
| 1777653682 | 17.22° C | 70% | 1020.2 hPa | 0 mm | - | 295 W/m² | - |
| 1777653379 | 17.22° C | 72% | 1020.3 hPa | 0 mm | - | 334 W/m² | - |
| 1777653076 | 17.22° C | 72% | 1020.3 hPa | 0 mm | - | 307 W/m² | - |
| 1777652772 | 17.22° C | 69% | 1020.3 hPa | 0 mm | - | 328 W/m² | - |
* Rain latest hour (hover to see other rain measurements)
** Current wind speed in m/s (hover to see current wind gust speed)